createdAt,value
2019-04-21T00:01:05.741Z,52.60
2019-04-21T00:03:41.067Z,53.00
2019-04-21T00:06:25.061Z,53.40
2019-04-21T00:08:56.478Z,54.30
2019-04-21T00:11:30.022Z,54.10
2019-04-21T00:13:52.659Z,54.40
2019-04-21T00:16:12.609Z,54.30
2019-04-21T00:18:57.524Z,53.90
2019-04-21T00:21:29.233Z,53.40
2019-04-21T00:24:20.301Z,52.90
2019-04-21T00:26:58.980Z,52.70
2019-04-21T00:29:35.392Z,52.40
2019-04-21T00:31:58.828Z,52.10
2019-04-21T00:34:13.342Z,52.10
2019-04-21T00:36:53.491Z,52.00
2019-04-21T00:39:43.354Z,52.00
2019-04-21T00:42:08.889Z,52.00
2019-04-21T00:44:28.415Z,52.10
2019-04-21T00:47:01.801Z,52.30
2019-04-21T00:49:33.074Z,52.50
2019-04-21T00:52:43.324Z,52.80
2019-04-21T00:55:18.752Z,53.20
2019-04-21T00:57:43.138Z,53.40
2019-04-21T01:00:10.635Z,53.60
2019-04-21T01:02:45.530Z,53.80
2019-04-21T01:05:15.183Z,53.50
2019-04-21T01:07:42.956Z,53.30
2019-04-21T01:10:06.491Z,53.10
2019-04-21T01:12:41.945Z,52.80
2019-04-21T01:15:19.206Z,52.60
2019-04-21T01:17:48.090Z,52.80
2019-04-21T01:20:12.177Z,52.70
2019-04-21T01:22:26.008Z,52.80
2019-04-21T01:25:04.681Z,52.70
2019-04-21T01:27:49.462Z,52.60
2019-04-21T01:30:18.902Z,52.60
2019-04-21T01:33:05.444Z,52.80
2019-04-21T01:35:34.343Z,53.00
2019-04-21T01:38:04.983Z,53.40
2019-04-21T01:40:33.840Z,53.90
2019-04-21T01:43:05.645Z,54.20
2019-04-21T01:45:40.043Z,54.40
2019-04-21T01:48:05.804Z,54.90
2019-04-21T01:50:41.146Z,55.20
2019-04-21T01:53:30.674Z,55.70
2019-04-21T01:56:16.911Z,56.00
2019-04-21T01:58:41.223Z,56.00
2019-04-21T02:01:15.605Z,55.90
2019-04-21T02:04:14.122Z,55.80
2019-04-21T02:06:44.398Z,55.90
2019-04-21T02:09:14.924Z,55.80
2019-04-21T02:11:50.481Z,55.80
2019-04-21T02:14:29.866Z,55.70
2019-04-21T02:16:49.563Z,55.60
2019-04-21T02:19:19.914Z,55.50
2019-04-21T02:21:44.924Z,55.50
2019-04-21T02:24:31.652Z,55.50
2019-04-21T02:26:57.321Z,55.50
2019-04-21T02:29:29.546Z,55.60
2019-04-21T02:34:41.435Z,56.70
2019-04-21T02:39:43.388Z,56.10
2019-04-21T02:44:44.722Z,56.10
2019-04-21T02:47:21.697Z,55.80
2019-04-21T02:49:56.875Z,55.40
2019-04-21T02:52:29.180Z,55.10
2019-04-21T02:57:18.535Z,54.70
2019-04-21T02:59:58.938Z,54.60
2019-04-21T03:02:42.995Z,54.60
2019-04-21T03:05:25.684Z,54.70
2019-04-21T03:07:52.695Z,55.00
2019-04-21T03:10:20.683Z,55.40
2019-04-21T03:17:49.847Z,56.90
2019-04-21T03:20:27.406Z,57.20
2019-04-21T03:22:53.502Z,57.60
2019-04-21T03:25:41.724Z,58.00
2019-04-21T03:27:56.854Z,58.40
2019-04-21T03:30:42.762Z,58.70
2019-04-21T03:33:23.850Z,58.90
2019-04-21T03:38:00.190Z,59.40
2019-04-21T03:42:57.012Z,59.70
2019-04-21T03:45:32.701Z,59.60
2019-04-21T03:48:04.744Z,59.60
2019-04-21T03:53:06.832Z,59.90
2019-04-21T04:01:02.398Z,60.30
2019-04-21T04:03:52.112Z,60.90
2019-04-21T04:13:58.115Z,62.10
2019-04-21T04:18:53.142Z,62.10
2019-04-21T04:21:30.269Z,62.40
2019-04-21T04:26:36.302Z,62.20
2019-04-21T04:29:03.441Z,62.60
2019-04-21T04:34:04.464Z,62.90
2019-04-21T04:36:43.389Z,63.40
2019-04-21T04:39:41.293Z,63.30
2019-04-21T04:47:22.744Z,63.50
2019-04-21T04:50:10.281Z,63.40
2019-04-21T04:55:03.504Z,62.60
2019-04-21T05:00:14.279Z,63.20
2019-04-21T05:02:52.320Z,62.90
2019-04-21T05:05:17.308Z,62.90
2019-04-21T05:10:07.553Z,62.60
2019-04-21T05:12:38.838Z,62.60
2019-04-21T05:15:07.743Z,62.30
2019-04-21T05:20:11.786Z,61.40
2019-04-21T05:22:35.529Z,60.90
2019-04-21T05:25:03.439Z,60.70
2019-04-21T05:27:33.567Z,60.20
2019-04-21T05:30:17.799Z,59.60
2019-04-21T05:32:48.757Z,59.40
2019-04-21T05:35:22.831Z,59.10
2019-04-21T05:38:02.012Z,58.70
2019-04-21T05:40:27.428Z,58.40
2019-04-21T05:43:04.409Z,58.00
2019-04-21T05:45:33.545Z,58.00
2019-04-21T05:48:19.209Z,57.80
2019-04-21T05:50:36.473Z,57.10
2019-04-21T05:53:17.751Z,56.00
2019-04-21T05:55:44.551Z,54.70
2019-04-21T05:58:08.480Z,54.20
2019-04-21T06:03:15.754Z,53.40
2019-04-21T06:06:00.274Z,53.60
2019-04-21T06:08:23.496Z,53.80
2019-04-21T06:10:52.305Z,53.40
2019-04-21T06:13:26.814Z,52.50
2019-04-21T06:15:56.243Z,51.50
2019-04-21T06:18:35.410Z,51.30
2019-04-21T06:20:59.793Z,50.50
2019-04-21T06:23:30.060Z,50.20
2019-04-21T06:26:12.182Z,50.10
2019-04-21T06:28:33.625Z,50.10
2019-04-21T06:31:42.404Z,50.30
2019-04-21T06:33:50.677Z,50.20
2019-04-21T06:36:36.275Z,49.80
2019-04-21T06:39:11.665Z,49.50
2019-04-21T06:44:07.657Z,49.10
2019-04-21T06:46:35.365Z,49.10
2019-04-21T06:49:02.854Z,49.30
2019-04-21T06:51:38.634Z,49.50
2019-04-21T06:54:10.246Z,49.60
2019-04-21T06:56:42.338Z,49.60
2019-04-21T06:59:21.714Z,49.70
2019-04-21T07:01:42.172Z,49.50
2019-04-21T07:04:19.715Z,49.50
2019-04-21T07:11:44.495Z,49.70
2019-04-21T07:16:53.129Z,49.90
2019-04-21T07:19:30.674Z,49.00
2019-04-21T07:22:04.785Z,48.60
2019-04-21T07:24:30.413Z,48.50
2019-04-21T07:29:23.979Z,48.70
2019-04-21T07:31:58.732Z,48.60
2019-04-21T07:34:27.088Z,48.50
2019-04-21T07:36:54.892Z,47.90
2019-04-21T07:39:45.045Z,47.40
2019-04-21T07:42:13.404Z,47.30
2019-04-21T07:44:44.805Z,47.30
2019-04-21T07:47:15.563Z,47.10
2019-04-21T07:49:56.555Z,46.70
2019-04-21T07:52:35.078Z,46.50
2019-04-21T07:55:19.762Z,46.70
2019-04-21T07:57:33.078Z,46.90
2019-04-21T08:00:20.995Z,47.00
2019-04-21T08:02:34.092Z,47.30
2019-04-21T08:05:13.090Z,47.10
2019-04-21T08:07:48.035Z,47.10
2019-04-21T08:10:11.179Z,47.10
2019-04-21T08:12:36.402Z,47.70
2019-04-21T08:15:34.863Z,47.30
2019-04-21T08:17:45.720Z,47.80
2019-04-21T08:20:14.311Z,47.50
2019-04-21T08:25:16.557Z,47.20
2019-04-21T08:30:21.463Z,47.50
2019-04-21T08:35:50.942Z,47.10
2019-04-21T08:37:48.516Z,46.40
2019-04-21T08:40:33.099Z,46.50
2019-04-21T08:42:55.254Z,46.30
2019-04-21T08:45:29.422Z,46.10
2019-04-21T08:47:58.230Z,45.10
2019-04-21T08:50:25.377Z,45.10
2019-04-21T08:53:01.751Z,45.50
2019-04-21T08:55:48.985Z,45.30
2019-04-21T08:58:22.694Z,44.80
2019-04-21T09:00:56.254Z,44.60
2019-04-21T09:03:43.027Z,44.90
2019-04-21T09:06:13.812Z,45.00
2019-04-21T09:08:41.680Z,45.00
2019-04-21T09:11:12.850Z,44.30
2019-04-21T09:13:41.104Z,44.40
2019-04-21T09:16:08.499Z,44.70
2019-04-21T09:18:42.048Z,44.40
2019-04-21T09:21:21.872Z,44.20
2019-04-21T09:23:45.335Z,43.50
2019-04-21T09:26:18.786Z,42.90
2019-04-21T09:28:45.031Z,43.20
2019-04-21T09:31:05.299Z,43.30
2019-04-21T09:33:39.095Z,43.60
2019-04-21T09:36:09.699Z,43.60
2019-04-21T09:38:41.504Z,42.50
2019-04-21T09:41:15.933Z,42.70
2019-04-21T09:43:45.329Z,43.00
2019-04-21T09:46:09.530Z,43.00
2019-04-21T09:48:49.594Z,42.20
2019-04-21T09:51:30.581Z,42.00
2019-04-21T09:54:05.794Z,42.50
2019-04-21T09:56:40.535Z,42.10
2019-04-21T09:59:11.409Z,41.70
2019-04-21T10:01:49.137Z,41.80
2019-04-21T10:04:05.683Z,41.70
2019-04-21T10:06:35.375Z,41.80
2019-04-21T10:09:10.266Z,41.60
2019-04-21T10:11:38.341Z,41.20
2019-04-21T10:14:07.734Z,41.30
2019-04-21T10:16:40.509Z,41.60
2019-04-21T10:19:11.014Z,41.60
2019-04-21T10:21:42.369Z,41.30
2019-04-21T10:24:12.524Z,39.40
2019-04-21T10:26:43.093Z,39.20
2019-04-21T10:29:19.690Z,39.10
2019-04-21T10:31:44.865Z,39.50
2019-04-21T10:34:14.485Z,38.40
2019-04-21T10:36:44.858Z,38.50
2019-04-21T10:39:13.798Z,38.90
2019-04-21T10:41:43.531Z,39.60
2019-04-21T10:44:13.537Z,39.50
2019-04-21T10:46:45.735Z,39.80
2019-04-21T10:49:14.805Z,39.20
2019-04-21T10:51:44.319Z,38.90
2019-04-21T10:54:13.736Z,38.10
2019-04-21T10:56:44.457Z,39.00
2019-04-21T10:59:14.378Z,39.00
2019-04-21T11:01:45.178Z,38.30
2019-04-21T11:04:21.894Z,38.80
2019-04-21T11:06:48.541Z,39.10
2019-04-21T11:09:18.090Z,39.20
2019-04-21T11:11:49.895Z,38.60
2019-04-21T11:14:18.993Z,38.20
2019-04-21T11:16:49.761Z,36.90
2019-04-21T11:19:20.066Z,37.40
2019-04-21T11:21:49.554Z,37.70
2019-04-21T11:24:18.914Z,37.20
2019-04-21T11:26:49.733Z,36.60
2019-04-21T11:29:19.460Z,37.40
2019-04-21T11:31:49.322Z,36.80
2019-04-21T11:34:18.879Z,36.60
2019-04-21T11:36:48.227Z,36.30
2019-04-21T11:39:33.479Z,36.20
2019-04-21T11:41:57.647Z,36.20
2019-04-21T11:44:27.112Z,36.40
2019-04-21T11:46:56.533Z,36.10
2019-04-21T11:49:27.650Z,35.40
2019-04-21T11:51:56.971Z,34.90
2019-04-21T11:54:26.738Z,35.60
2019-04-21T11:56:56.930Z,36.70
2019-04-21T11:59:27.878Z,36.70
2019-04-21T12:01:57.492Z,36.40
2019-04-21T12:04:27.511Z,34.90
2019-04-21T12:06:57.892Z,34.40
2019-04-21T12:09:29.319Z,34.80
2019-04-21T12:11:59.084Z,34.10
2019-04-21T12:14:30.150Z,33.60
2019-04-21T12:16:59.788Z,33.90
2019-04-21T12:19:30.476Z,33.40
2019-04-21T12:22:10.078Z,33.10
2019-04-21T12:24:33.420Z,33.40
2019-04-21T12:27:04.100Z,33.80
2019-04-21T12:29:35.563Z,33.70
2019-04-21T12:32:42.721Z,32.50
2019-04-21T12:35:13.955Z,32.20
2019-04-21T12:37:44.721Z,32.90
2019-04-21T12:40:14.799Z,32.40
2019-04-21T12:42:45.391Z,31.70
2019-04-21T12:45:15.234Z,31.90
2019-04-21T12:47:47.338Z,31.90
2019-04-21T12:50:17.031Z,31.30
2019-04-21T12:52:47.441Z,30.50
2019-04-21T12:55:17.674Z,30.10
2019-04-21T12:57:47.673Z,30.00
2019-04-21T13:00:20.753Z,29.70
2019-04-21T13:02:50.286Z,29.70
2019-04-21T13:05:19.943Z,29.40
2019-04-21T13:07:49.515Z,28.90
2019-04-21T13:10:20.095Z,28.60
2019-04-21T13:12:50.061Z,28.90
2019-04-21T13:15:19.934Z,28.60
2019-04-21T13:17:50.257Z,28.20
2019-04-21T13:20:21.062Z,27.90
2019-04-21T13:22:50.515Z,28.30
2019-04-21T13:25:20.116Z,28.60
2019-04-21T13:27:50.654Z,28.80
2019-04-21T13:30:20.174Z,28.00
2019-04-21T13:32:51.263Z,28.10
2019-04-21T13:35:21.202Z,27.60
2019-04-21T13:37:52.241Z,27.60
2019-04-21T13:40:56.856Z,28.00
2019-04-21T13:43:12.732Z,27.80
2019-04-21T13:45:43.528Z,28.10
2019-04-21T13:48:12.967Z,27.90
2019-04-21T13:50:43.642Z,27.50
2019-04-21T13:53:14.516Z,27.20
2019-04-21T13:55:44.650Z,27.40
2019-04-21T13:58:14.591Z,27.40
2019-04-21T14:00:45.455Z,27.30
2019-04-21T14:03:16.377Z,27.10
2019-04-21T14:05:46.528Z,27.80
2019-04-21T14:08:16.216Z,27.40
2019-04-21T14:10:45.596Z,26.90
2019-04-21T14:13:16.354Z,27.30
2019-04-21T14:15:48.230Z,27.70
2019-04-21T14:18:18.508Z,28.00
2019-04-21T14:20:49.135Z,27.60
2019-04-21T14:23:29.917Z,27.10
2019-04-21T14:25:50.103Z,27.20
2019-04-21T14:28:21.957Z,27.50
2019-04-21T14:30:52.576Z,27.90
2019-04-21T14:33:23.494Z,28.10
2019-04-21T14:35:54.652Z,27.90
2019-04-21T14:38:24.924Z,27.20
2019-04-21T14:40:54.457Z,27.20
2019-04-21T14:43:23.971Z,27.70
2019-04-21T14:45:58.628Z,28.60
2019-04-21T14:48:30.098Z,28.60
2019-04-21T14:51:07.138Z,28.40
2019-04-21T14:53:47.813Z,28.10
2019-04-21T14:56:17.503Z,28.70
2019-04-21T14:58:48.794Z,28.90
2019-04-21T15:01:18.256Z,28.70
2019-04-21T15:03:47.918Z,28.80
2019-04-21T15:06:17.412Z,28.70
2019-04-21T15:08:47.092Z,28.40
2019-04-21T15:11:17.972Z,28.20
2019-04-21T15:13:48.086Z,28.00
2019-04-21T15:16:18.708Z,28.30
2019-04-21T15:18:48.599Z,28.20
2019-04-21T15:21:19.176Z,28.30
2019-04-21T15:23:48.805Z,28.50
2019-04-21T15:26:18.200Z,28.80
2019-04-21T15:28:48.851Z,29.00
2019-04-21T15:31:23.884Z,28.90
2019-04-21T15:33:49.622Z,29.60
2019-04-21T15:36:19.103Z,29.90
2019-04-21T15:38:49.627Z,29.90
2019-04-21T15:41:20.440Z,29.80
2019-04-21T15:43:50.813Z,29.70
2019-04-21T15:46:20.538Z,30.00
2019-04-21T15:48:51.001Z,30.10
2019-04-21T15:51:21.654Z,30.60
2019-04-21T15:53:52.003Z,30.80
2019-04-21T15:56:31.039Z,31.40
2019-04-21T15:59:02.231Z,31.40
2019-04-21T16:01:52.530Z,30.80
2019-04-21T16:04:22.986Z,30.40
2019-04-21T16:06:53.338Z,30.80
2019-04-21T16:09:25.927Z,31.10
2019-04-21T16:11:53.767Z,31.30
2019-04-21T16:14:23.151Z,31.90
2019-04-21T16:16:53.671Z,32.10
2019-04-21T16:19:23.215Z,32.40
2019-04-21T16:21:52.891Z,32.80
2019-04-21T16:24:23.285Z,32.30
2019-04-21T16:26:53.945Z,31.80
2019-04-21T16:29:23.311Z,31.50
2019-04-21T16:31:53.290Z,31.50
2019-04-21T16:34:34.470Z,31.50
2019-04-21T16:36:53.953Z,31.30
2019-04-21T16:39:23.458Z,31.40
2019-04-21T16:41:54.073Z,31.30
2019-04-21T16:44:25.181Z,31.10
2019-04-21T16:46:55.708Z,31.20
2019-04-21T16:49:25.496Z,31.30
2019-04-21T16:52:12.543Z,31.30
2019-04-21T16:54:44.106Z,31.50
2019-04-21T16:57:19.619Z,31.80
2019-04-21T16:59:50.960Z,32.10
2019-04-21T17:02:20.635Z,32.10
2019-04-21T17:04:50.100Z,32.30
2019-04-21T17:07:20.034Z,32.20
2019-04-21T17:09:50.629Z,32.60
2019-04-21T17:12:22.741Z,32.90
2019-04-21T17:15:08.472Z,33.40
2019-04-21T17:17:45.863Z,34.00
2019-04-21T17:20:04.413Z,34.30
2019-04-21T17:22:25.755Z,34.20
2019-04-21T17:24:56.033Z,33.70
2019-04-21T17:27:27.075Z,34.50
2019-04-21T17:29:56.829Z,35.70
2019-04-21T17:32:32.113Z,36.50
2019-04-21T17:34:58.092Z,37.30
2019-04-21T17:37:30.571Z,37.50
2019-04-21T17:40:03.215Z,37.70
2019-04-21T17:42:39.768Z,38.30
2019-04-21T17:45:05.426Z,39.20
2019-04-21T17:47:44.902Z,40.50
2019-04-21T17:50:15.611Z,41.30
2019-04-21T17:52:55.630Z,41.60
2019-04-21T17:55:27.312Z,42.00
2019-04-21T17:58:09.356Z,42.60
2019-04-21T18:01:07.857Z,42.90
2019-04-21T18:03:27.086Z,43.40
2019-04-21T18:05:42.412Z,43.90
2019-04-21T18:08:19.063Z,44.70
2019-04-21T18:10:45.777Z,45.30
2019-04-21T18:13:07.814Z,45.80
2019-04-21T18:15:50.624Z,46.10
2019-04-21T18:18:02.963Z,47.20
2019-04-21T18:20:35.392Z,46.80
2019-04-21T18:23:34.893Z,47.10
2019-04-21T18:26:01.959Z,47.20
2019-04-21T18:28:26.314Z,47.20
2019-04-21T18:30:58.379Z,47.30
2019-04-21T18:33:33.276Z,47.50
2019-04-21T18:36:05.120Z,47.80
2019-04-21T18:39:10.358Z,48.10
2019-04-21T18:41:30.353Z,48.20
2019-04-21T18:44:46.222Z,48.40
2019-04-21T18:47:19.870Z,48.40
2019-04-21T18:49:29.122Z,48.50
2019-04-21T18:52:19.219Z,48.50
2019-04-21T18:54:54.950Z,49.20
2019-04-21T18:57:24.416Z,48.40
2019-04-21T18:59:45.539Z,48.70
2019-04-21T19:02:17.776Z,48.50
2019-04-21T19:04:46.314Z,48.70
2019-04-21T19:07:30.605Z,48.90
2019-04-21T19:10:20.594Z,48.90
2019-04-21T19:13:04.947Z,48.90
2019-04-21T19:15:04.323Z,49.00
2019-04-21T19:20:14.411Z,49.10
2019-04-21T19:22:38.771Z,48.80
2019-04-21T19:25:11.500Z,48.70
2019-04-21T19:27:42.167Z,48.30
2019-04-21T19:30:23.556Z,48.00
2019-04-21T19:32:41.662Z,48.00
2019-04-21T19:35:00.322Z,48.10
2019-04-21T19:37:33.613Z,48.30
2019-04-21T19:40:10.531Z,48.70
2019-04-21T19:42:42.105Z,49.30
2019-04-21T19:45:17.569Z,49.30
2019-04-21T19:47:52.696Z,49.70
2019-04-21T19:50:33.595Z,49.80
2019-04-21T19:52:48.634Z,50.10
2019-04-21T19:55:09.736Z,50.30
2019-04-21T19:57:39.330Z,50.70
2019-04-21T20:00:10.113Z,50.90
2019-04-21T20:02:40.529Z,51.20
2019-04-21T20:05:15.390Z,51.50
2019-04-21T20:08:01.568Z,51.90
2019-04-21T20:10:32.815Z,52.10
2019-04-21T20:13:06.401Z,51.80
2019-04-21T20:15:35.881Z,52.00
2019-04-21T20:17:58.581Z,52.20
2019-04-21T20:20:17.178Z,52.20
2019-04-21T20:22:50.505Z,52.30
2019-04-21T20:25:20.894Z,51.80
2019-04-21T20:27:55.432Z,51.60
2019-04-21T20:30:40.485Z,52.00
2019-04-21T20:33:19.761Z,52.00
2019-04-21T20:35:46.839Z,51.70
2019-04-21T20:38:10.774Z,51.40
2019-04-21T20:40:35.856Z,51.10
2019-04-21T20:43:23.955Z,51.60
2019-04-21T20:45:47.325Z,51.60
2019-04-21T20:48:10.863Z,51.80
2019-04-21T20:50:44.739Z,51.90
2019-04-21T20:53:14.956Z,51.70
2019-04-21T20:55:48.394Z,51.70
2019-04-21T20:58:15.077Z,51.50
2019-04-21T21:01:08.170Z,51.50
2019-04-21T21:03:24.678Z,51.60
2019-04-21T21:05:49.489Z,51.60
2019-04-21T21:08:31.427Z,51.80
2019-04-21T21:10:53.487Z,51.80
2019-04-21T21:13:33.394Z,52.20
2019-04-21T21:16:10.806Z,52.40
2019-04-21T21:18:48.215Z,52.60
2019-04-21T21:21:03.325Z,52.80
2019-04-21T21:23:36.275Z,53.20
2019-04-21T21:26:01.885Z,53.60
2019-04-21T21:28:32.650Z,53.80
2019-04-21T21:31:11.754Z,54.60
2019-04-21T21:33:35.485Z,54.80
2019-04-21T21:36:06.654Z,54.40
2019-04-21T21:38:40.593Z,55.30
2019-04-21T21:40:59.879Z,55.00
2019-04-21T21:43:25.046Z,55.40
2019-04-21T21:45:57.892Z,55.80
2019-04-21T21:48:38.243Z,55.80
2019-04-21T21:51:08.138Z,55.90
2019-04-21T21:53:31.733Z,55.70
2019-04-21T21:55:58.805Z,55.40
2019-04-21T21:58:36.460Z,54.60
2019-04-21T22:01:04.193Z,54.10
2019-04-21T22:03:36.730Z,53.60
2019-04-21T22:06:07.863Z,53.20
2019-04-21T22:08:34.378Z,53.10
2019-04-21T22:11:05.308Z,52.90
2019-04-21T22:13:43.604Z,52.90
2019-04-21T22:16:10.373Z,52.90
2019-04-21T22:19:02.219Z,53.00
2019-04-21T22:21:18.191Z,53.10
2019-04-21T22:24:05.404Z,53.30
2019-04-21T22:26:29.663Z,53.30
2019-04-21T22:29:19.369Z,53.20
2019-04-21T22:31:52.753Z,53.10
2019-04-21T22:34:27.721Z,53.00
2019-04-21T22:37:01.515Z,53.00
2019-04-21T22:39:42.075Z,52.90
2019-04-21T22:42:01.718Z,52.90
2019-04-21T22:44:24.764Z,52.70
2019-04-21T22:47:02.843Z,52.50
2019-04-21T22:49:26.483Z,52.50
2019-04-21T22:51:57.329Z,52.50
2019-04-21T22:54:35.483Z,52.70
2019-04-21T22:57:05.243Z,52.60
2019-04-21T22:59:30.537Z,52.70
2019-04-21T23:02:01.505Z,52.70
2019-04-21T23:04:35.884Z,52.80
2019-04-21T23:07:07.475Z,52.80
2019-04-21T23:09:33.243Z,52.80
2019-04-21T23:12:03.325Z,52.80
2019-04-21T23:14:45.429Z,52.80
2019-04-21T23:17:29.780Z,52.80
2019-04-21T23:19:53.834Z,52.80
2019-04-21T23:22:24.829Z,53.00
2019-04-21T23:24:59.213Z,53.10
2019-04-21T23:27:20.573Z,53.60
2019-04-21T23:30:00.219Z,53.90
2019-04-21T23:32:25.717Z,54.10
2019-04-21T23:34:43.807Z,54.70
2019-04-21T23:37:19.524Z,55.00
2019-04-21T23:39:45.400Z,55.50
2019-04-21T23:42:20.458Z,56.00
2019-04-21T23:44:51.458Z,56.30
2019-04-21T23:47:29.199Z,56.30
2019-04-21T23:49:56.631Z,56.10
2019-04-21T23:52:19.840Z,55.90
2019-04-21T23:54:49.464Z,55.80
2019-04-21T23:57:28.546Z,55.50
2019-04-21T23:59:55.111Z,55.20
